Terminal Aerodrome Forecast
Issued by NWS

Home | Current Version | Previous Version | Graphics & Text | Print | Product List | Glossary On
Versions: 1 2 3 4 5 6 7 8 9 10 11 12 13 14 15 16 17
681
FTUS43 KICT 250520
TAFRSL
TAF
KRSL 250520Z 2506/2606 14010KT P6SM SKC
     FM251100 17012KT P6SM FEW250 WS020/18040KT
     FM251400 17016G23KT P6SM SCT250
     FM260000 14010KT P6SM BKN250=

USA.gov is the U.S. government's official web portal to all federal, state and local government web resources and services.